Ladd, North Dakota
Current Conditions -  °F | °C
As of 5:53 PM on Wednesday 17 Dec 2014 (Local Time) from KHEI Reporting Station
Overcast Overcast  
Wind Chill:   Ceiling: 400
Heat Index: 17°   Visibility: 7mi
Dew Point: 14°   Wind: 10mph
Humidity: 88%   Direction: 140°SE
Pressure: 30.07"   Gusts: NA
Location:  46.1126°N, 103.431°W
Report Text: KHEI 180053Z AUTO 14009KT 7SM OVC004 M08/M10 A3007 RMK AO2 SNB23E44 SLP232 P0000 T10831100
Loading
Personal Weather Stations






























Interactive Weather Map New forecast layout! Learn more

10-Day Weather Forecast

Advertisements
Track Severe Weather on mobile